Time;durP1;ratioP1;P1;durP2;ratioP2;P2;SDS_P1;SDS_P2;PMS_P1;PMS_P2;Temp;Humidity;BMP_temperature;BMP_pressure;BME280_temperature;BME280_humidity;BME280_pressure;Samples;Min_cycle;Max_cycle;Signal;HPM_P1;HPM_P2
2021/10/25 00:00:43;;;;;;;9.82;3.20;;;7.30;58.90;;;;;;6277361;22;20004;-66
2021/10/25 00:03:09;;;;;;;14.57;3.70;;;7.20;58.80;;;;;;6277309;22;20000;-66
2021/10/25 00:05:35;;;;;;;7.75;2.78;;;7.20;58.80;;;;;;6277364;22;20416;-65
2021/10/25 00:08:01;;;;;;;15.05;3.00;;;7.20;58.80;;;;;;6277428;22;20026;-65
2021/10/25 00:10:27;;;;;;;7.03;2.97;;;7.20;58.90;;;;;;6277239;22;20117;-67
2021/10/25 00:12:53;;;;;;;9.77;3.47;;;7.20;59.00;;;;;;6277051;22;20007;-67
2021/10/25 00:15:18;;;;;;;10.25;2.90;;;7.20;59.10;;;;;;6277177;22;20034;-66
2021/10/25 00:17:44;;;;;;;11.68;2.92;;;7.20;59.00;;;;;;6275603;22;19999;-66
2021/10/25 00:20:11;;;;;;;7.55;3.20;;;7.20;59.10;;;;;;6277094;22;20435;-66
2021/10/25 00:22:38;;;;;;;6.88;3.20;;;7.10;59.10;;;;;;6277173;22;20374;-66
2021/10/25 00:25:04;;;;;;;9.68;3.60;;;7.10;59.20;;;;;;6277137;22;20003;-66
2021/10/25 00:27:30;;;;;;;12.98;3.72;;;7.10;59.30;;;;;;6277366;22;19999;-66
2021/10/25 00:29:56;;;;;;;6.13;2.80;;;7.10;59.40;;;;;;6277113;22;20010;-66
2021/10/25 00:32:22;;;;;;;8.27;2.97;;;7.10;59.40;;;;;;6276948;22;20419;-66
2021/10/25 00:34:48;;;;;;;10.52;3.75;;;7.10;59.40;;;;;;6277040;22;20376;-65
2021/10/25 00:37:14;;;;;;;6.35;3.22;;;7.10;59.40;;;;;;6276996;22;20073;-65
2021/10/25 00:39:40;;;;;;;7.25;3.03;;;7.00;59.30;;;;;;6276968;22;20031;-66
2021/10/25 00:42:06;;;;;;;6.88;3.40;;;7.00;59.30;;;;;;6276774;22;20008;-65
2021/10/25 00:44:32;;;;;;;6.93;3.17;;;7.00;59.40;;;;;;6276840;22;20454;-65
2021/10/25 00:46:58;;;;;;;7.80;3.38;;;7.00;59.40;;;;;;6276880;22;19999;-66
2021/10/25 00:49:25;;;;;;;5.50;2.97;;;6.90;59.60;;;;;;6276923;22;20003;-66
2021/10/25 00:51:51;;;;;;;6.10;2.88;;;7.00;59.60;;;;;;6276794;22;20091;-65
2021/10/25 00:54:18;;;;;;;6.63;2.83;;;6.90;59.60;;;;;;6276779;22;19999;-66
2021/10/25 00:56:45;;;;;;;8.38;3.13;;;6.90;59.60;;;;;;6276642;22;20473;-66
2021/10/25 00:59:12;;;;;;;6.30;3.17;;;6.90;59.70;;;;;;6276775;22;20067;-66
2021/10/25 01:01:40;;;;;;;10.63;3.00;;;6.90;59.80;;;;;;6276749;22;20083;-66
2021/10/25 01:04:07;;;;;;;9.32;3.03;;;6.90;59.90;;;;;;6276694;22;20074;-65
2021/10/25 01:06:33;;;;;;;7.35;3.70;;;6.90;59.80;;;;;;6276993;22;20007;-65
2021/10/25 01:08:59;;;;;;;5.90;3.58;;;6.90;59.90;;;;;;6276762;22;20316;-65
2021/10/25 01:11:26;;;;;;;23.70;3.90;;;6.90;59.90;;;;;;6276619;22;20004;-65
2021/10/25 01:13:53;;;;;;;14.20;4.53;;;6.90;60.10;;;;;;6276398;22;20008;-66
2021/10/25 01:16:20;;;;;;;11.02;4.20;;;6.90;60.20;;;;;;6276637;22;20067;-66
2021/10/25 01:18:48;;;;;;;10.57;4.18;;;6.90;60.50;;;;;;6276547;22;20000;-65
2021/10/25 01:21:14;;;;;;;7.00;3.80;;;6.80;60.70;;;;;;6276583;22;20007;-66
2021/10/25 01:23:40;;;;;;;25.58;6.13;;;6.80;60.90;;;;;;6276564;22;20010;-65
2021/10/25 01:26:06;;;;;;;11.10;4.82;;;6.80;61.00;;;;;;6276411;22;20026;-66
2021/10/25 01:28:32;;;;;;;8.70;4.05;;;6.80;61.50;;;;;;6276474;22;20069;-66
2021/10/25 01:30:58;;;;;;;8.88;3.95;;;6.90;61.80;;;;;;6276025;22;20427;-66
2021/10/25 01:33:27;;;;;;;13.85;5.25;;;6.90;61.90;;;;;;6276494;22;19995;-65
2021/10/25 01:35:53;;;;;;;12.90;3.92;;;6.90;61.60;;;;;;6276445;22;20046;-65
2021/10/25 01:38:19;;;;;;;10.82;3.47;;;6.90;61.40;;;;;;6276414;22;20003;-66
2021/10/25 01:40:44;;;;;;;6.07;3.15;;;6.90;61.40;;;;;;6276327;22;19996;-65
2021/10/25 01:43:10;;;;;;;7.15;4.00;;;6.80;61.10;;;;;;6276283;22;20073;-65
2021/10/25 01:45:36;;;;;;;6.05;3.42;;;6.80;61.00;;;;;;6276309;22;20007;-66
2021/10/25 01:48:03;;;;;;;7.35;3.33;;;6.80;60.90;;;;;;6276405;22;19999;-65
2021/10/25 01:50:29;;;;;;;12.40;3.63;;;6.80;60.90;;;;;;6274638;22;20423;-65
2021/10/25 01:52:55;;;;;;;4.97;3.10;;;6.80;60.90;;;;;;6276217;22;20003;-66
2021/10/25 01:55:21;;;;;;;7.85;2.88;;;6.70;60.80;;;;;;6276283;22;20000;-65
2021/10/25 01:57:47;;;;;;;6.72;3.50;;;6.70;60.80;;;;;;6276186;22;20015;-65
2021/10/25 02:00:13;;;;;;;8.73;3.30;;;6.70;60.70;;;;;;6276313;22;20308;-66
2021/10/25 02:02:39;;;;;;;8.93;3.60;;;6.70;60.70;;;;;;6276088;22;20006;-66
2021/10/25 02:05:05;;;;;;;7.82;3.95;;;6.70;60.90;;;;;;6276096;22;20384;-66
2021/10/25 02:07:31;;;;;;;6.82;3.10;;;6.70;61.00;;;;;;6275993;22;20004;-66
2021/10/25 02:09:57;;;;;;;7.18;3.88;;;6.60;60.90;;;;;;6275976;22;20442;-66
2021/10/25 02:12:23;;;;;;;7.57;3.90;;;6.60;60.90;;;;;;6275640;22;20015;-66
2021/10/25 02:14:50;;;;;;;22.95;4.20;;;6.60;60.90;;;;;;6274399;22;20004;-65
2021/10/25 02:17:16;;;;;;;9.02;3.60;;;6.60;61.00;;;;;;6276031;22;19996;-66
2021/10/25 02:19:41;;;;;;;6.25;3.25;;;6.60;61.00;;;;;;6274442;22;20381;-65
2021/10/25 02:22:08;;;;;;;10.27;4.05;;;6.60;61.00;;;;;;6275868;22;20374;-65
2021/10/25 02:24:35;;;;;;;6.97;3.28;;;6.50;61.00;;;;;;6275895;22;20004;-65
2021/10/25 02:27:03;;;;;;;10.43;3.85;;;6.60;61.10;;;;;;6276008;22;19999;-65
2021/10/25 02:29:35;;;;;;;8.02;3.88;;;6.50;61.10;;;;;;6275810;22;20066;-66
2021/10/25 02:32:05;;;;;;;24.98;4.20;;;6.50;61.10;;;;;;6274244;22;20008;-65
2021/10/25 02:34:32;;;;;;;32.10;4.20;;;6.50;61.20;;;;;;6275904;22;19995;-65
2021/10/25 02:36:59;;;;;;;20.05;5.03;;;6.50;61.10;;;;;;6275645;22;20353;-65
2021/10/25 02:39:27;;;;;;;19.17;5.75;;;6.50;61.10;;;;;;6275855;22;20003;-65
2021/10/25 02:41:53;;;;;;;12.35;5.00;;;6.50;61.20;;;;;;6276420;22;20004;-65
2021/10/25 02:44:19;;;;;;;10.73;4.95;;;6.40;61.20;;;;;;6277899;22;20049;-65
2021/10/25 02:46:44;;;;;;;13.80;4.70;;;6.40;61.20;;;;;;6277912;22;20057;-66
2021/10/25 02:49:10;;;;;;;13.48;4.85;;;6.40;61.20;;;;;;6277761;22;20003;-66
2021/10/25 02:51:36;;;;;;;20.70;6.28;;;6.40;61.20;;;;;;6277771;22;20008;-65
2021/10/25 02:54:02;;;;;;;19.42;5.00;;;6.40;61.20;;;;;;6277870;22;20427;-65
2021/10/25 02:56:28;;;;;;;11.55;6.45;;;6.40;61.30;;;;;;6277804;22;20438;-65
2021/10/25 02:58:56;;;;;;;16.02;5.95;;;6.40;61.40;;;;;;6277738;22;19996;-65
2021/10/25 03:01:22;;;;;;;16.02;5.28;;;6.40;61.50;;;;;;6277764;22;20003;-66
2021/10/25 03:03:48;;;;;;;10.95;4.68;;;6.40;61.50;;;;;;6277717;22;20481;-66
2021/10/25 03:06:14;;;;;;;12.52;6.28;;;6.30;61.40;;;;;;6277822;22;20070;-65
2021/10/25 03:08:40;;;;;;;14.98;6.32;;;6.30;61.40;;;;;;6277567;22;20313;-65
2021/10/25 03:11:07;;;;;;;19.25;6.40;;;6.30;61.50;;;;;;6277488;22;20050;-66
2021/10/25 03:13:33;;;;;;;17.55;6.97;;;6.30;61.50;;;;;;6277442;22;20027;-66
2021/10/25 03:15:59;;;;;;;21.40;6.00;;;6.30;61.70;;;;;;6277675;22;19996;-66
2021/10/25 03:18:25;;;;;;;14.05;5.68;;;6.30;61.80;;;;;;6278078;22;19996;-65
2021/10/25 03:20:52;;;;;;;9.77;5.55;;;6.30;62.00;;;;;;6277561;22;20003;-66
2021/10/25 03:23:18;;;;;;;14.55;6.00;;;6.30;62.70;;;;;;6277531;22;20003;-65
2021/10/25 03:25:44;;;;;;;14.63;5.78;;;6.30;62.70;;;;;;6277456;22;20386;-65
2021/10/25 03:28:10;;;;;;;10.45;5.63;;;6.30;62.70;;;;;;6277532;22;20030;-65
2021/10/25 03:30:36;;;;;;;10.40;5.15;;;6.30;62.80;;;;;;6277369;22;20004;-65
2021/10/25 03:33:02;;;;;;;9.63;5.25;;;6.30;63.10;;;;;;6275517;22;20003;-66
2021/10/25 03:35:28;;;;;;;11.45;5.18;;;6.30;63.60;;;;;;6277453;22;20331;-65
2021/10/25 03:37:55;;;;;;;12.75;6.60;;;6.30;63.60;;;;;;6277543;22;20137;-66
2021/10/25 03:40:21;;;;;;;8.95;5.22;;;6.40;63.70;;;;;;6277472;22;20423;-65
2021/10/25 03:42:50;;;;;;;49.70;29.27;;;6.40;63.70;;;;;;6275796;22;20004;-65
2021/10/25 03:48:07;;;;;;;16.17;10.05;;;6.40;63.40;;;;;;6278108;22;20007;-66
2021/10/25 03:50:33;;;;;;;10.07;5.15;;;6.40;63.20;;;;;;6276960;22;20007;-65
2021/10/25 03:55:38;;;;;;;12.38;5.68;;;6.30;62.70;;;;;;6277120;22;20004;-65
2021/10/25 04:03:48;;;;;;;16.83;5.30;;;6.30;63.20;;;;;;6277186;22;20073;-65
2021/10/25 04:30:18;;;;;;;13.50;5.47;;;6.20;62.90;;;;;;6277205;22;20086;-66
2021/10/25 04:32:44;;;;;;;9.60;4.72;;;6.10;62.80;;;;;;6276681;22;20003;-66
2021/10/25 04:35:10;;;;;;;8.10;4.85;;;6.10;63.00;;;;;;6276626;22;20075;-65
2021/10/25 04:37:36;;;;;;;7.60;4.50;;;6.10;63.00;;;;;;6276788;22;20000;-65
2021/10/25 04:40:04;;;;;;;6.90;4.20;;;6.10;63.00;;;;;;6276628;22;20442;-66
2021/10/25 04:42:31;;;;;;;13.10;4.78;;;6.10;63.00;;;;;;6276796;22;20485;-65
2021/10/25 04:44:57;;;;;;;9.60;5.13;;;6.00;62.90;;;;;;6275060;22;20056;-65
2021/10/25 04:47:23;;;;;;;11.05;5.43;;;6.00;63.00;;;;;;6276726;22;20012;-65
2021/10/25 04:49:49;;;;;;;9.27;5.00;;;6.00;63.00;;;;;;6276663;22;20377;-66
2021/10/25 04:52:15;;;;;;;8.75;4.57;;;6.00;63.00;;;;;;6276514;22;20057;-66
2021/10/25 04:54:42;;;;;;;11.27;5.47;;;6.00;63.00;;;;;;6276607;22;20020;-65
2021/10/25 04:57:08;;;;;;;9.60;4.85;;;6.00;63.00;;;;;;6276729;22;20000;-65
2021/10/25 04:59:34;;;;;;;7.95;4.95;;;5.90;62.90;;;;;;6276606;22;20000;-65
2021/10/25 05:01:59;;;;;;;9.48;5.05;;;5.90;62.90;;;;;;6276549;22;20027;-65
2021/10/25 05:04:25;;;;;;;8.50;4.95;;;5.90;63.00;;;;;;6276306;22;20004;-65
2021/10/25 05:06:51;;;;;;;16.08;6.45;;;5.90;63.00;;;;;;6275966;22;20446;-66
2021/10/25 05:09:17;;;;;;;15.82;6.25;;;5.90;63.10;;;;;;6276477;22;20141;-66
2021/10/25 05:11:44;;;;;;;10.80;5.25;;;5.90;63.20;;;;;;6276211;22;20031;-67
2021/10/25 05:14:09;;;;;;;9.35;5.10;;;5.90;63.20;;;;;;6276137;22;20012;-67
2021/10/25 05:16:35;;;;;;;10.93;4.70;;;5.90;63.00;;;;;;6276172;22;20004;-66
2021/10/25 05:19:01;;;;;;;11.68;5.72;;;5.80;63.00;;;;;;6276214;22;19996;-66
2021/10/25 05:21:27;;;;;;;12.73;6.43;;;5.80;62.90;;;;;;6276366;22;20050;-68
2021/10/25 05:23:53;;;;;;;12.60;6.38;;;5.80;63.10;;;;;;6276164;22;20015;-66
2021/10/25 05:26:20;;;;;;;10.32;5.80;;;5.80;63.10;;;;;;6276267;22;19999;-67
2021/10/25 05:28:45;;;;;;;12.63;6.03;;;5.80;63.10;;;;;;6276192;22;20004;-66
2021/10/25 05:31:11;;;;;;;10.38;5.43;;;5.80;63.10;;;;;;6276096;22;20010;-69
2021/10/25 05:33:39;;;;;;;12.25;6.80;;;5.80;63.10;;;;;;6276261;22;19996;-66
2021/10/25 05:36:07;;;;;;;11.07;5.68;;;5.80;63.30;;;;;;6276323;22;19996;-66
2021/10/25 05:38:33;;;;;;;10.32;5.47;;;5.70;63.20;;;;;;6276450;22;20075;-66
2021/10/25 05:41:00;;;;;;;12.70;5.68;;;5.80;63.40;;;;;;6276451;22;20007;-67
2021/10/25 05:43:26;;;;;;;10.50;5.32;;;5.80;63.40;;;;;;6276357;22;20000;-66
2021/10/25 05:45:52;;;;;;;10.93;5.18;;;5.80;63.40;;;;;;6276304;22;20003;-66
2021/10/25 05:48:18;;;;;;;10.25;5.60;;;5.80;63.50;;;;;;6275910;22;20010;-66
2021/10/25 05:50:45;;;;;;;11.48;5.88;;;5.80;63.60;;;;;;6276064;22;20053;-66
2021/10/25 05:53:10;;;;;;;13.13;5.70;;;5.80;63.60;;;;;;6276094;22;20008;-66
2021/10/25 05:55:38;;;;;;;18.58;6.20;;;5.80;63.60;;;;;;6275943;22;20480;-67
2021/10/25 05:58:05;;;;;;;17.92;6.20;;;5.80;63.70;;;;;;6275905;22;19996;-66
2021/10/25 06:00:36;;;;;;;12.85;5.65;;;5.80;63.70;;;;;;6275807;22;19999;-67
2021/10/25 06:03:02;;;;;;;24.30;6.30;;;5.90;63.90;;;;;;6275811;22;20075;-66
2021/10/25 06:05:30;;;;;;;10.85;5.97;;;5.80;63.90;;;;;;6275996;22;20316;-66
2021/10/25 06:07:57;;;;;;;13.68;5.57;;;5.90;64.20;;;;;;6276015;22;20071;-66
2021/10/25 06:10:27;;;;;;;12.77;5.20;;;6.00;64.30;;;;;;6275906;22;20027;-66
2021/10/25 06:12:56;;;;;;;13.00;5.20;;;6.00;64.30;;;;;;6275600;22;20012;-66
2021/10/25 06:15:23;;;;;;;10.45;4.70;;;6.00;64.40;;;;;;6276041;22;19996;-66
2021/10/25 06:20:20;;;;;;;14.15;5.63;;;6.20;65.30;;;;;;6279873;22;20461;-66
2021/10/25 06:22:46;;;;;;;8.98;5.50;;;6.30;64.70;;;;;;6279371;22;20034;-66
2021/10/25 06:25:13;;;;;;;14.15;4.78;;;6.30;64.70;;;;;;6279280;22;20000;-66
2021/10/25 06:27:41;;;;;;;16.42;6.47;;;6.40;64.80;;;;;;6279338;22;20004;-66
2021/10/25 06:30:08;;;;;;;18.27;6.53;;;6.50;64.80;;;;;;6279428;22;20379;-65
2021/10/25 06:32:33;;;;;;;14.32;6.50;;;6.60;64.90;;;;;;6277650;22;20000;-66
2021/10/25 06:35:03;;;;;;;16.52;5.90;;;6.70;64.90;;;;;;6279269;22;20000;-65
2021/10/25 06:37:35;;;;;;;14.10;6.47;;;6.80;64.90;;;;;;6279202;22;19996;-66
2021/10/25 06:40:05;;;;;;;14.45;6.70;;;6.90;64.90;;;;;;6279188;22;20150;-66
2021/10/25 06:42:31;;;;;;;16.38;6.85;;;7.00;65.00;;;;;;6279275;22;19999;-66
2021/10/25 06:44:59;;;;;;;14.90;7.43;;;7.10;64.90;;;;;;6278952;22;20049;-66
2021/10/25 06:47:25;;;;;;;13.88;6.80;;;7.20;64.90;;;;;;6279212;22;20038;-66
2021/10/25 06:49:51;;;;;;;13.38;7.30;;;7.20;64.80;;;;;;6277632;22;20006;-66
2021/10/25 06:52:18;;;;;;;10.88;6.43;;;7.30;64.80;;;;;;6278996;22;20007;-66
2021/10/25 06:54:44;;;;;;;12.55;6.63;;;7.40;64.70;;;;;;6279170;22;19999;-66
2021/10/25 06:57:10;;;;;;;17.58;7.45;;;7.50;64.50;;;;;;6278915;22;20415;-66
2021/10/25 06:59:36;;;;;;;17.25;6.57;;;7.60;64.40;;;;;;6278973;22;20004;-65
2021/10/25 07:02:02;;;;;;;12.82;6.07;;;7.70;64.20;;;;;;6278855;22;20025;-67
2021/10/25 07:04:29;;;;;;;14.13;6.32;;;7.80;64.10;;;;;;6278711;22;19999;-66
2021/10/25 07:06:56;;;;;;;14.82;6.00;;;7.90;64.10;;;;;;6279031;22;20011;-66
2021/10/25 07:09:22;;;;;;;19.17;6.45;;;8.00;64.10;;;;;;6279071;22;20004;-66
2021/10/25 07:11:48;;;;;;;18.67;6.20;;;8.20;64.20;;;;;;6278895;22;20026;-67
2021/10/25 07:14:16;;;;;;;9.57;5.28;;;8.30;64.20;;;;;;6278901;22;20012;-67
2021/10/25 07:17:28;;;;;;;25.48;5.97;;;8.40;63.90;;;;;;6278989;22;20002;-67
2021/10/25 08:03:07;;;;;;;9.15;5.00;;;9.60;60.50;;;;;;6287309;22;20015;-67
2021/10/25 08:05:47;;;;;;;10.63;5.35;;;9.60;60.40;;;;;;6276794;22;20007;-67
2021/10/25 08:10:40;;;;;;;35.90;18.00;;;9.80;60.40;;;;;;6277057;22;20428;-67
2021/10/25 08:13:15;;;;;;;28.60;16.38;;;9.90;60.20;;;;;;6276609;22;20039;-67
2021/10/25 08:15:45;;;;;;;28.92;15.68;;;9.90;60.00;;;;;;6277035;22;19996;-66
2021/10/25 08:18:33;;;;;;;35.80;16.70;;;10.00;59.90;;;;;;6276763;22;20030;-67
2021/10/25 08:21:00;;;;;;;28.08;14.68;;;10.10;59.60;;;;;;6276890;22;20067;-67
2021/10/25 08:23:26;;;;;;;21.58;12.90;;;10.20;59.30;;;;;;6276910;22;20003;-67
2021/10/25 08:25:53;;;;;;;23.20;11.85;;;10.30;59.30;;;;;;6277061;22;20093;-67
2021/10/25 08:28:19;;;;;;;21.77;11.27;;;10.30;59.00;;;;;;6276774;22;20003;-67
2021/10/25 08:30:45;;;;;;;27.23;14.35;;;10.40;58.60;;;;;;6276703;22;20081;-65
2021/10/25 08:41:26;;;;;;;26.85;13.25;;;10.50;57.80;;;;;;6153284;23;20468;-67
2021/10/25 08:43:54;;;;;;;27.15;13.57;;;10.60;58.00;;;;;;6153203;23;20076;-67
2021/10/25 08:46:25;;;;;;;23.85;11.48;;;10.70;57.90;;;;;;6152949;23;20527;-67
2021/10/25 08:48:53;;;;;;;24.05;8.65;;;10.70;57.80;;;;;;6128343;23;20025;-67
2021/10/25 08:51:19;;;;;;;16.08;8.40;;;10.80;57.50;;;;;;6152956;23;20445;-68
2021/10/25 08:53:46;;;;;;;25.13;9.10;;;10.90;57.50;;;;;;6153134;23;20092;-66
2021/10/25 08:56:18;;;;;;;26.40;8.77;;;11.00;57.20;;;;;;6152835;23;20037;-66
2021/10/25 08:58:46;;;;;;;24.13;9.55;;;11.10;56.70;;;;;;6153240;23;20068;-67
2021/10/25 09:01:32;;;;;;;13.80;7.00;;;11.20;56.70;;;;;;6153423;23;20382;-66
2021/10/25 09:04:12;;;;;;;20.45;6.88;;;11.30;56.60;;;;;;6153069;23;20391;-66
2021/10/25 09:06:51;;;;;;;19.70;6.30;;;11.40;55.80;;;;;;6153152;23;20002;-67
2021/10/25 09:09:17;;;;;;;12.88;6.15;;;11.50;55.90;;;;;;6169832;22;20080;-66
2021/10/25 09:12:07;;;;;;;16.45;5.93;;;11.70;56.20;;;;;;6276479;22;20080;-67
2021/10/25 09:14:34;;;;;;;12.63;6.25;;;11.80;55.50;;;;;;6274908;22;20339;-67
2021/10/25 09:17:06;;;;;;;12.63;4.97;;;12.00;55.50;;;;;;6275055;22;20003;-66
2021/10/25 09:19:36;;;;;;;17.00;6.15;;;12.10;55.40;;;;;;6276524;22;20026;-67
2021/10/25 09:22:11;;;;;;;13.02;6.32;;;12.20;55.50;;;;;;6275952;22;20007;-67
2021/10/25 09:24:37;;;;;;;13.95;6.30;;;12.40;54.50;;;;;;6276027;22;20006;-67
2021/10/25 09:27:07;;;;;;;14.20;6.55;;;12.50;54.30;;;;;;6276276;22;20353;-67
2021/10/25 09:29:36;;;;;;;12.40;6.18;;;12.70;54.20;;;;;;6276417;22;20014;-67
2021/10/25 09:32:08;;;;;;;16.10;7.40;;;12.80;53.90;;;;;;6276024;22;20276;-67
2021/10/25 09:34:49;;;;;;;13.30;6.20;;;13.00;53.30;;;;;;6276244;22;19996;-66
2021/10/25 09:37:20;;;;;;;13.85;5.50;;;13.10;53.20;;;;;;6276271;22;19996;-66
2021/10/25 09:50:21;;;;;;;19.80;8.95;;;13.60;51.00;;;;;;6276017;22;20117;-67
2021/10/25 09:52:47;;;;;;;21.67;8.80;;;13.60;50.30;;;;;;6275744;22;20000;-67
2021/10/25 09:55:20;;;;;;;17.45;7.05;;;13.70;50.50;;;;;;6276127;22;19995;-66
2021/10/25 10:00:17;;;;;;;17.30;6.45;;;13.80;51.10;;;;;;6276448;22;20014;-68
2021/10/25 10:02:45;;;;;;;11.75;6.13;;;13.80;50.80;;;;;;6276041;22;20074;-68
2021/10/25 10:05:13;;;;;;;11.57;6.00;;;13.80;50.70;;;;;;6276114;22;20004;-67
2021/10/25 10:07:44;;;;;;;17.27;6.72;;;13.90;50.80;;;;;;6275893;22;20071;-68
2021/10/25 10:10:14;;;;;;;11.68;5.60;;;13.90;50.40;;;;;;6276055;22;20058;-68
2021/10/25 10:12:42;;;;;;;12.57;6.50;;;14.00;50.50;;;;;;6275701;22;20034;-68
2021/10/25 10:15:11;;;;;;;15.52;7.03;;;14.10;50.10;;;;;;6275670;22;20007;-69
2021/10/25 10:17:50;;;;;;;14.10;8.43;;;14.20;50.20;;;;;;6274337;22;20377;-68
2021/10/25 10:20:33;;;;;;;19.33;9.68;;;14.30;50.00;;;;;;6275899;22;20019;-68
2021/10/25 10:23:11;;;;;;;15.57;8.50;;;14.40;49.80;;;;;;6275939;22;20035;-68
2021/10/25 10:26:00;;;;;;;18.13;9.15;;;14.50;49.50;;;;;;6275823;22;20003;-68
2021/10/25 10:28:40;;;;;;;16.27;8.52;;;14.60;49.30;;;;;;6275491;22;20004;-68
2021/10/25 10:31:15;;;;;;;18.63;8.95;;;14.70;49.20;;;;;;6275774;22;20027;-68
2021/10/25 10:33:52;;;;;;;12.13;7.70;;;14.80;49.00;;;;;;6275740;22;20151;-68
2021/10/25 10:36:27;;;;;;;14.90;8.13;;;14.90;48.60;;;;;;6275856;22;20003;-68
2021/10/25 10:39:06;;;;;;;16.10;8.43;;;15.00;48.90;;;;;;6275660;22;20000;-67
2021/10/25 10:41:40;;;;;;;16.05;8.35;;;15.00;48.10;;;;;;6275714;22;20512;-68
2021/10/25 10:44:17;;;;;;;18.75;7.85;;;15.10;48.10;;;;;;6275780;22;20032;-67
2021/10/25 10:46:51;;;;;;;16.50;7.05;;;15.10;47.70;;;;;;6275783;22;20004;-68
2021/10/25 10:49:18;;;;;;;;;;;15.10;47.60;;;;;;6274895;22;20027;-67
2021/10/25 10:51:45;;;;;;;17.60;6.95;;;15.10;49.20;;;;;;6275842;22;19910;-68
2021/10/25 10:54:21;;;;;;;12.20;7.00;;;15.20;47.40;;;;;;6275813;22;20372;-68
2021/10/25 10:57:05;;;;;;;14.88;6.43;;;15.20;47.50;;;;;;6275808;22;19992;-66
2021/10/25 10:59:36;;;;;;;14.23;6.43;;;15.30;47.50;;;;;;6275798;22;20006;-68
2021/10/25 11:02:02;;;;;;;11.68;5.97;;;15.30;47.50;;;;;;6274197;22;20027;-66
2021/10/25 11:04:33;;;;;;;10.88;6.40;;;15.40;48.00;;;;;;6276644;22;20419;-66
2021/10/25 11:07:03;;;;;;;19.00;6.55;;;15.50;48.00;;;;;;6277933;22;20003;-66
2021/10/25 11:09:33;;;;;;;13.25;5.53;;;15.50;47.10;;;;;;6277595;22;20006;-67
2021/10/25 11:12:05;;;;;;;13.00;5.93;;;15.60;46.90;;;;;;6277653;22;20010;-67
2021/10/25 11:14:34;;;;;;;13.27;4.75;;;15.70;46.60;;;;;;6275855;22;20016;-68
2021/10/25 11:19:43;;;;;;;15.45;5.13;;;15.80;45.90;;;;;;6287986;22;20000;-67
2021/10/25 11:22:09;;;;;;;16.45;6.25;;;15.80;45.60;;;;;;6277579;22;20027;-68
2021/10/25 11:24:34;;;;;;;14.75;5.47;;;15.80;45.50;;;;;;6277313;22;20439;-67
2021/10/25 11:27:00;;;;;;;20.65;5.35;;;15.80;45.50;;;;;;6277456;22;19999;-67
2021/10/25 11:29:35;;;;;;;20.73;6.10;;;15.90;45.10;;;;;;6275754;22;20317;-67
2021/10/25 11:32:03;;;;;;;12.63;5.15;;;15.80;44.90;;;;;;6277299;22;20439;-67
2021/10/25 11:34:33;;;;;;;13.50;5.50;;;15.90;45.00;;;;;;6277410;22;20007;-67
2021/10/25 11:37:09;;;;;;;11.00;5.40;;;15.90;44.60;;;;;;6277450;22;20066;-67
2021/10/25 11:39:51;;;;;;;16.08;5.78;;;16.00;45.10;;;;;;6277788;22;20000;-67
2021/10/25 11:42:23;;;;;;;13.02;5.03;;;16.00;44.40;;;;;;6276968;22;20004;-67
2021/10/25 11:44:52;;;;;;;20.48;5.40;;;16.10;44.40;;;;;;6277082;22;20007;-68
2021/10/25 11:47:20;;;;;;;9.20;4.45;;;16.10;44.40;;;;;;6277393;22;20372;-68
2021/10/25 11:49:47;;;;;;;10.52;4.55;;;16.20;44.30;;;;;;6277232;22;20378;-68
2021/10/25 11:52:13;;;;;;;14.77;5.15;;;16.20;44.20;;;;;;6277001;22;20030;-68
2021/10/25 11:54:57;;;;;;;17.45;4.85;;;16.20;44.40;;;;;;6277012;22;20003;-68
2021/10/25 11:57:23;;;;;;;9.07;4.25;;;16.30;44.20;;;;;;6277135;22;20008;-68
2021/10/25 12:00:19;;;;;;;10.55;4.68;;;16.40;44.40;;;;;;6277385;22;20026;-68
2021/10/25 12:02:46;;;;;;;15.45;5.32;;;16.40;44.10;;;;;;6244974;22;20010;-67
2021/10/25 12:05:18;;;;;;;8.88;4.60;;;16.50;43.30;;;;;;6277061;22;20071;-68
2021/10/25 12:07:53;;;;;;;11.60;4.13;;;16.50;43.80;;;;;;6277234;22;20030;-67
2021/10/25 12:10:24;;;;;;;11.25;4.25;;;16.60;43.80;;;;;;6277059;22;20002;-68
2021/10/25 12:12:51;;;;;;;9.23;4.50;;;16.60;43.30;;;;;;6276788;22;20011;-68
2021/10/25 12:15:22;;;;;;;7.82;4.10;;;16.70;43.10;;;;;;6276870;22;20005;-68
2021/10/25 12:17:49;;;;;;;18.67;4.82;;;16.70;43.00;;;;;;6276946;22;20443;-68
2021/10/25 12:20:32;;;;;;;8.48;4.15;;;16.80;43.20;;;;;;6277399;22;20000;-68
2021/10/25 12:23:02;;;;;;;9.95;4.13;;;16.80;42.70;;;;;;6275489;22;20411;-67
2021/10/25 12:25:30;;;;;;;7.85;4.25;;;16.90;42.60;;;;;;6275502;22;20007;-68
2021/10/25 12:27:59;;;;;;;8.52;4.85;;;16.90;42.60;;;;;;6276907;22;20000;-68
2021/10/25 12:30:28;;;;;;;8.77;4.68;;;17.00;42.00;;;;;;6277054;22;20439;-68
2021/10/25 12:32:59;;;;;;;9.82;5.38;;;17.00;41.10;;;;;;6276640;22;20027;-67
2021/10/25 12:35:46;;;;;;;17.15;4.82;;;16.90;41.50;;;;;;6275018;22;20000;-68
2021/10/25 12:38:20;;;;;;;14.93;5.07;;;16.90;41.60;;;;;;6276451;22;19996;-67
2021/10/25 12:40:47;;;;;;;;;;;16.90;41.80;;;;;;6276933;22;19999;-68
2021/10/25 12:43:15;;;;;;;9.20;4.13;;;16.90;43.10;;;;;;6276434;22;19965;-68
2021/10/25 12:45:43;;;;;;;11.68;4.53;;;16.80;41.60;;;;;;6276804;22;20419;-67
2021/10/25 12:48:14;;;;;;;10.15;4.25;;;16.80;41.70;;;;;;6276428;22;20007;-68
2021/10/25 12:50:44;;;;;;;9.23;4.03;;;16.70;42.00;;;;;;6276975;22;20007;-67
2021/10/25 12:53:13;;;;;;;9.75;4.07;;;16.70;42.20;;;;;;6276594;22;20078;-67
2021/10/25 12:55:40;;;;;;;12.35;3.95;;;16.70;42.30;;;;;;6274751;22;20504;-68
2021/10/25 12:58:11;;;;;;;14.88;4.22;;;16.70;42.20;;;;;;6276668;22;20271;-68
2021/10/25 13:00:38;;;;;;;12.93;4.90;;;16.70;42.30;;;;;;6276315;22;20439;-68
2021/10/25 13:03:10;;;;;;;8.90;4.97;;;16.70;42.00;;;;;;6276464;22;20058;-67
2021/10/25 13:05:41;;;;;;;14.32;4.70;;;16.70;42.10;;;;;;6276286;22;20004;-68
2021/10/25 13:08:09;;;;;;;12.50;4.90;;;16.80;42.20;;;;;;6276567;22;20000;-67
2021/10/25 13:10:40;;;;;;;11.88;4.82;;;16.80;42.00;;;;;;6276508;22;20003;-68
2021/10/25 13:13:12;;;;;;;11.43;4.25;;;16.80;41.90;;;;;;6276190;22;20007;-68
2021/10/25 13:15:39;;;;;;;12.15;4.53;;;16.80;41.70;;;;;;6276544;22;20004;-67
2021/10/25 13:18:08;;;;;;;13.70;5.03;;;16.90;42.10;;;;;;6276377;22;20075;-67
2021/10/25 13:20:36;;;;;;;11.32;3.90;;;16.90;42.30;;;;;;6276424;22;20023;-67
2021/10/25 13:23:04;;;;;;;11.57;5.20;;;16.90;42.00;;;;;;6276460;22;20026;-68
2021/10/25 13:25:32;;;;;;;11.40;4.70;;;16.90;41.20;;;;;;6276176;22;20065;-68
2021/10/25 13:28:01;;;;;;;11.00;4.82;;;16.90;41.60;;;;;;6276006;22;20000;-67
2021/10/25 13:30:28;;;;;;;14.15;4.88;;;16.90;41.70;;;;;;6276243;22;20007;-68
2021/10/25 13:32:54;;;;;;;13.18;5.20;;;16.90;41.60;;;;;;6274508;22;20039;-68
2021/10/25 13:35:20;;;;;;;12.98;5.70;;;16.80;41.20;;;;;;6276200;22;20055;-67
2021/10/25 13:37:57;;;;;;;11.68;4.63;;;16.80;41.60;;;;;;6274478;22;20343;-67
2021/10/25 13:40:29;;;;;;;7.30;4.43;;;16.80;41.70;;;;;;6276309;22;20003;-67
2021/10/25 13:42:57;;;;;;;13.25;4.30;;;16.80;41.80;;;;;;6276270;22;20060;-67
2021/10/25 13:45:23;;;;;;;11.57;4.78;;;16.70;41.90;;;;;;6276278;22;20011;-68
2021/10/25 13:47:49;;;;;;;7.30;4.22;;;16.70;41.80;;;;;;6276207;22;20003;-68
2021/10/25 13:50:16;;;;;;;10.40;4.63;;;16.70;41.90;;;;;;6274469;22;20007;-67
2021/10/25 13:52:43;;;;;;;11.43;5.25;;;16.60;41.70;;;;;;6276225;22;20000;-68
2021/10/25 13:55:09;;;;;;;16.23;5.38;;;16.60;41.70;;;;;;6276154;22;19996;-67
2021/10/25 13:57:40;;;;;;;12.57;5.45;;;16.60;42.00;;;;;;6276145;22;20011;-68
2021/10/25 14:00:08;;;;;;;11.65;4.90;;;16.60;42.30;;;;;;6275991;22;19995;-68
2021/10/25 14:02:34;;;;;;;8.85;5.20;;;16.50;42.00;;;;;;6276043;22;20382;-68
2021/10/25 14:04:59;;;;;;;9.80;4.82;;;16.50;42.10;;;;;;6276031;22;20003;-69
2021/10/25 14:07:34;;;;;;;10.35;4.88;;;16.50;41.90;;;;;;6276059;22;20004;-68
2021/10/25 14:10:06;;;;;;;10.30;4.78;;;16.40;41.80;;;;;;6274198;22;20007;-67
2021/10/25 14:12:33;;;;;;;8.82;4.47;;;16.40;42.00;;;;;;6275674;22;20477;-67
2021/10/25 14:15:06;;;;;;;10.98;5.35;;;16.40;42.10;;;;;;6276134;22;20004;-68
2021/10/25 14:17:32;;;;;;;17.25;4.78;;;16.40;42.10;;;;;;6276113;22;20007;-68
2021/10/25 14:19:58;;;;;;;15.88;6.60;;;16.40;42.20;;;;;;6275696;22;20375;-68
2021/10/25 14:22:24;;;;;;;12.25;6.95;;;16.30;42.40;;;;;;6275884;22;20026;-68
2021/10/25 14:24:50;;;;;;;13.80;5.47;;;16.30;42.50;;;;;;6275624;22;20152;-68
2021/10/25 14:27:16;;;;;;;12.60;4.65;;;16.30;42.60;;;;;;6275871;22;20038;-67
2021/10/25 14:29:42;;;;;;;10.43;4.43;;;16.30;42.70;;;;;;6275878;22;20000;-68
2021/10/25 14:32:09;;;;;;;13.57;5.07;;;16.20;42.80;;;;;;6275827;22;20004;-69
2021/10/25 14:34:35;;;;;;;14.18;6.15;;;16.20;43.00;;;;;;6274043;22;20075;-69
2021/10/25 14:37:06;;;;;;;14.40;4.68;;;16.20;43.40;;;;;;6275573;22;20038;-68
2021/10/25 14:39:44;;;;;;;10.15;4.47;;;16.10;43.50;;;;;;6277958;22;20045;-68